sensor_id;sensor_type;location;lat;lon;timestamp;P1;durP1;ratioP1;P2;durP2;ratioP2
56331;SDS011;42237;53.340;6.812;2022-12-24T00:01:27;33.17;;;15.27;;
56331;SDS011;42237;53.340;6.812;2022-12-24T00:03:53;29.90;;;13.85;;
56331;SDS011;42237;53.340;6.812;2022-12-24T00:06:20;27.30;;;13.02;;
56331;SDS011;42237;53.340;6.812;2022-12-24T00:08:47;33.20;;;14.85;;
56331;SDS011;42237;53.340;6.812;2022-12-24T00:11:15;31.05;;;14.10;;
56331;SDS011;42237;53.340;6.812;2022-12-24T00:13:41;33.00;;;14.85;;
56331;SDS011;42237;53.340;6.812;2022-12-24T00:16:06;27.60;;;13.75;;
56331;SDS011;42237;53.340;6.812;2022-12-24T00:18:32;27.55;;;14.43;;
56331;SDS011;42237;53.340;6.812;2022-12-24T00:20:58;28.30;;;13.55;;
56331;SDS011;42237;53.340;6.812;2022-12-24T00:23:25;33.53;;;16.02;;
56331;SDS011;42237;53.340;6.812;2022-12-24T00:25:51;32.45;;;15.55;;
56331;SDS011;42237;53.340;6.812;2022-12-24T00:28:17;28.52;;;13.70;;
56331;SDS011;42237;53.340;6.812;2022-12-24T00:30:43;30.92;;;14.88;;
56331;SDS011;42237;53.340;6.812;2022-12-24T00:33:09;32.05;;;15.27;;
56331;SDS011;42237;53.340;6.812;2022-12-24T00:35:35;30.05;;;14.55;;
56331;SDS011;42237;53.340;6.812;2022-12-24T00:38:02;29.58;;;15.88;;
56331;SDS011;42237;53.340;6.812;2022-12-24T00:40:29;27.50;;;15.25;;
56331;SDS011;42237;53.340;6.812;2022-12-24T00:42:56;28.70;;;14.27;;
56331;SDS011;42237;53.340;6.812;2022-12-24T00:45:21;31.15;;;15.82;;
56331;SDS011;42237;53.340;6.812;2022-12-24T00:47:47;29.38;;;16.05;;
56331;SDS011;42237;53.340;6.812;2022-12-24T00:50:13;33.20;;;15.95;;
56331;SDS011;42237;53.340;6.812;2022-12-24T00:52:39;31.48;;;14.35;;
56331;SDS011;42237;53.340;6.812;2022-12-24T00:55:08;31.90;;;15.10;;
56331;SDS011;42237;53.340;6.812;2022-12-24T00:57:34;35.92;;;17.27;;
56331;SDS011;42237;53.340;6.812;2022-12-24T01:00:00;44.10;;;18.23;;
56331;SDS011;42237;53.340;6.812;2022-12-24T01:02:28;34.00;;;16.27;;
56331;SDS011;42237;53.340;6.812;2022-12-24T01:04:54;32.65;;;14.77;;
56331;SDS011;42237;53.340;6.812;2022-12-24T01:07:35;31.23;;;14.68;;
56331;SDS011;42237;53.340;6.812;2022-12-24T01:10:02;31.73;;;15.32;;
56331;SDS011;42237;53.340;6.812;2022-12-24T01:12:31;33.60;;;14.55;;
56331;SDS011;42237;53.340;6.812;2022-12-24T01:14:57;37.67;;;16.65;;
56331;SDS011;42237;53.340;6.812;2022-12-24T01:17:23;31.92;;;15.77;;
56331;SDS011;42237;53.340;6.812;2022-12-24T01:19:51;30.88;;;14.90;;
56331;SDS011;42237;53.340;6.812;2022-12-24T01:22:17;32.58;;;14.43;;
56331;SDS011;42237;53.340;6.812;2022-12-24T01:24:45;35.30;;;15.77;;
56331;SDS011;42237;53.340;6.812;2022-12-24T01:27:13;38.42;;;15.40;;
56331;SDS011;42237;53.340;6.812;2022-12-24T01:29:39;35.00;;;17.38;;
56331;SDS011;42237;53.340;6.812;2022-12-24T01:32:05;34.03;;;14.90;;
56331;SDS011;42237;53.340;6.812;2022-12-24T01:34:31;35.70;;;15.60;;
56331;SDS011;42237;53.340;6.812;2022-12-24T01:37:00;36.78;;;16.63;;
56331;SDS011;42237;53.340;6.812;2022-12-24T01:39:28;28.00;;;13.82;;
56331;SDS011;42237;53.340;6.812;2022-12-24T01:41:54;33.78;;;16.13;;
56331;SDS011;42237;53.340;6.812;2022-12-24T01:44:42;28.25;;;13.88;;
56331;SDS011;42237;53.340;6.812;2022-12-24T01:49:54;28.10;;;14.00;;
56331;SDS011;42237;53.340;6.812;2022-12-24T01:52:30;35.78;;;15.82;;
56331;SDS011;42237;53.340;6.812;2022-12-24T01:55:01;40.42;;;15.55;;
56331;SDS011;42237;53.340;6.812;2022-12-24T01:57:31;40.22;;;17.58;;
56331;SDS011;42237;53.340;6.812;2022-12-24T02:00:04;38.42;;;16.98;;
56331;SDS011;42237;53.340;6.812;2022-12-24T02:02:33;36.45;;;16.48;;
56331;SDS011;42237;53.340;6.812;2022-12-24T02:07:34;35.10;;;14.90;;
56331;SDS011;42237;53.340;6.812;2022-12-24T02:10:00;27.50;;;13.15;;
56331;SDS011;42237;53.340;6.812;2022-12-24T02:12:28;43.47;;;17.98;;
56331;SDS011;42237;53.340;6.812;2022-12-24T02:14:57;60.72;;;22.80;;
56331;SDS011;42237;53.340;6.812;2022-12-24T02:17:31;45.28;;;17.95;;
56331;SDS011;42237;53.340;6.812;2022-12-24T02:26:13;33.22;;;14.30;;
56331;SDS011;42237;53.340;6.812;2022-12-24T02:29:04;45.55;;;17.45;;
56331;SDS011;42237;53.340;6.812;2022-12-24T02:32:22;38.90;;;15.80;;
56331;SDS011;42237;53.340;6.812;2022-12-24T02:34:54;43.97;;;17.20;;
56331;SDS011;42237;53.340;6.812;2022-12-24T02:37:27;33.20;;;15.57;;
56331;SDS011;42237;53.340;6.812;2022-12-24T02:40:10;49.45;;;18.33;;
56331;SDS011;42237;53.340;6.812;2022-12-24T02:42:40;36.80;;;16.85;;
56331;SDS011;42237;53.340;6.812;2022-12-24T02:45:13;35.47;;;16.42;;
56331;SDS011;42237;53.340;6.812;2022-12-24T02:47:42;36.55;;;15.63;;
56331;SDS011;42237;53.340;6.812;2022-12-24T02:50:10;35.25;;;15.48;;
56331;SDS011;42237;53.340;6.812;2022-12-24T02:52:42;42.85;;;17.95;;
56331;SDS011;42237;53.340;6.812;2022-12-24T03:03:45;35.17;;;14.60;;
56331;SDS011;42237;53.340;6.812;2022-12-24T03:09:43;44.42;;;17.88;;
56331;SDS011;42237;53.340;6.812;2022-12-24T03:12:06;39.83;;;16.23;;
56331;SDS011;42237;53.340;6.812;2022-12-24T03:14:38;39.88;;;16.05;;
56331;SDS011;42237;53.340;6.812;2022-12-24T03:17:05;42.13;;;16.45;;
56331;SDS011;42237;53.340;6.812;2022-12-24T03:19:32;53.90;;;16.98;;
56331;SDS011;42237;53.340;6.812;2022-12-24T03:21:59;32.70;;;14.55;;
56331;SDS011;42237;53.340;6.812;2022-12-24T03:24:28;29.25;;;15.68;;
56331;SDS011;42237;53.340;6.812;2022-12-24T03:26:54;38.97;;;16.60;;
56331;SDS011;42237;53.340;6.812;2022-12-24T03:29:20;65.55;;;22.83;;
56331;SDS011;42237;53.340;6.812;2022-12-24T03:31:47;90.75;;;21.95;;
56331;SDS011;42237;53.340;6.812;2022-12-24T03:34:15;101.40;;;26.10;;
56331;SDS011;42237;53.340;6.812;2022-12-24T03:36:41;30.33;;;14.63;;
56331;SDS011;42237;53.340;6.812;2022-12-24T03:39:08;46.15;;;19.65;;
56331;SDS011;42237;53.340;6.812;2022-12-24T03:41:35;40.03;;;17.92;;
56331;SDS011;42237;53.340;6.812;2022-12-24T03:44:02;36.72;;;18.98;;
56331;SDS011;42237;53.340;6.812;2022-12-24T03:46:28;77.40;;;23.17;;
56331;SDS011;42237;53.340;6.812;2022-12-24T03:48:53;38.55;;;17.55;;
56331;SDS011;42237;53.340;6.812;2022-12-24T03:51:20;29.17;;;15.25;;
56331;SDS011;42237;53.340;6.812;2022-12-24T03:53:47;33.40;;;17.08;;
56331;SDS011;42237;53.340;6.812;2022-12-24T03:56:17;29.20;;;15.88;;
56331;SDS011;42237;53.340;6.812;2022-12-24T03:58:43;44.28;;;18.95;;
56331;SDS011;42237;53.340;6.812;2022-12-24T04:01:10;36.10;;;16.42;;
56331;SDS011;42237;53.340;6.812;2022-12-24T04:03:36;45.22;;;19.25;;
56331;SDS011;42237;53.340;6.812;2022-12-24T04:06:03;31.55;;;16.38;;
56331;SDS011;42237;53.340;6.812;2022-12-24T04:08:31;40.00;;;18.50;;
56331;SDS011;42237;53.340;6.812;2022-12-24T04:10:56;35.88;;;17.08;;
56331;SDS011;42237;53.340;6.812;2022-12-24T04:13:22;37.55;;;17.60;;
56331;SDS011;42237;53.340;6.812;2022-12-24T04:15:58;33.85;;;17.95;;
56331;SDS011;42237;53.340;6.812;2022-12-24T04:18:25;33.67;;;17.00;;
56331;SDS011;42237;53.340;6.812;2022-12-24T04:20:51;36.55;;;17.95;;
56331;SDS011;42237;53.340;6.812;2022-12-24T04:23:17;49.13;;;21.63;;
56331;SDS011;42237;53.340;6.812;2022-12-24T04:25:42;42.78;;;19.85;;
56331;SDS011;42237;53.340;6.812;2022-12-24T04:28:08;36.33;;;17.98;;
56331;SDS011;42237;53.340;6.812;2022-12-24T04:30:34;45.85;;;21.95;;
56331;SDS011;42237;53.340;6.812;2022-12-24T04:33:02;41.80;;;22.17;;
56331;SDS011;42237;53.340;6.812;2022-12-24T04:35:30;45.67;;;21.20;;
56331;SDS011;42237;53.340;6.812;2022-12-24T04:37:55;42.35;;;20.98;;
56331;SDS011;42237;53.340;6.812;2022-12-24T04:40:21;49.67;;;23.80;;
56331;SDS011;42237;53.340;6.812;2022-12-24T04:42:47;50.42;;;21.88;;
56331;SDS011;42237;53.340;6.812;2022-12-24T04:45:15;46.13;;;22.40;;
56331;SDS011;42237;53.340;6.812;2022-12-24T04:47:44;45.70;;;22.30;;
56331;SDS011;42237;53.340;6.812;2022-12-24T04:50:10;47.00;;;23.08;;
56331;SDS011;42237;53.340;6.812;2022-12-24T04:52:38;53.25;;;23.98;;
56331;SDS011;42237;53.340;6.812;2022-12-24T04:55:04;42.63;;;21.05;;
56331;SDS011;42237;53.340;6.812;2022-12-24T04:57:33;45.80;;;22.30;;
56331;SDS011;42237;53.340;6.812;2022-12-24T05:00:01;44.35;;;21.15;;
56331;SDS011;42237;53.340;6.812;2022-12-24T05:02:31;39.38;;;20.35;;
56331;SDS011;42237;53.340;6.812;2022-12-24T05:04:57;42.45;;;20.17;;
56331;SDS011;42237;53.340;6.812;2022-12-24T05:07:22;40.55;;;19.50;;
56331;SDS011;42237;53.340;6.812;2022-12-24T05:09:48;39.08;;;18.80;;
56331;SDS011;42237;53.340;6.812;2022-12-24T05:12:14;43.53;;;20.25;;
56331;SDS011;42237;53.340;6.812;2022-12-24T05:14:39;41.67;;;19.90;;
56331;SDS011;42237;53.340;6.812;2022-12-24T05:17:05;40.03;;;19.48;;
56331;SDS011;42237;53.340;6.812;2022-12-24T05:19:31;41.38;;;18.65;;
56331;SDS011;42237;53.340;6.812;2022-12-24T05:21:57;39.88;;;18.58;;
56331;SDS011;42237;53.340;6.812;2022-12-24T05:24:41;37.13;;;15.55;;
56331;SDS011;42237;53.340;6.812;2022-12-24T05:27:25;33.33;;;15.40;;
56331;SDS011;42237;53.340;6.812;2022-12-24T05:29:51;34.00;;;16.00;;
56331;SDS011;42237;53.340;6.812;2022-12-24T05:32:17;31.95;;;14.45;;
56331;SDS011;42237;53.340;6.812;2022-12-24T05:34:43;37.80;;;13.73;;
56331;SDS011;42237;53.340;6.812;2022-12-24T05:37:11;32.35;;;11.48;;
56331;SDS011;42237;53.340;6.812;2022-12-24T05:39:40;38.70;;;11.02;;
56331;SDS011;42237;53.340;6.812;2022-12-24T05:42:07;30.25;;;10.32;;
56331;SDS011;42237;53.340;6.812;2022-12-24T05:44:33;43.20;;;11.38;;
56331;SDS011;42237;53.340;6.812;2022-12-24T05:46:59;43.67;;;10.48;;
56331;SDS011;42237;53.340;6.812;2022-12-24T05:49:25;36.03;;;9.50;;
56331;SDS011;42237;53.340;6.812;2022-12-24T05:51:52;34.55;;;8.70;;
56331;SDS011;42237;53.340;6.812;2022-12-24T05:54:21;38.15;;;9.95;;
56331;SDS011;42237;53.340;6.812;2022-12-24T05:56:46;38.25;;;8.48;;
56331;SDS011;42237;53.340;6.812;2022-12-24T05:59:15;34.95;;;8.20;;
56331;SDS011;42237;53.340;6.812;2022-12-24T06:01:43;52.53;;;8.50;;
56331;SDS011;42237;53.340;6.812;2022-12-24T06:04:12;41.13;;;8.02;;
56331;SDS011;42237;53.340;6.812;2022-12-24T06:06:40;41.70;;;9.07;;
56331;SDS011;42237;53.340;6.812;2022-12-24T06:09:06;45.70;;;7.90;;
56331;SDS011;42237;53.340;6.812;2022-12-24T06:11:32;42.60;;;8.43;;
56331;SDS011;42237;53.340;6.812;2022-12-24T06:13:57;46.20;;;8.52;;
56331;SDS011;42237;53.340;6.812;2022-12-24T06:16:23;45.03;;;8.30;;
56331;SDS011;42237;53.340;6.812;2022-12-24T06:18:52;47.53;;;7.28;;
56331;SDS011;42237;53.340;6.812;2022-12-24T06:21:23;50.25;;;8.55;;
56331;SDS011;42237;53.340;6.812;2022-12-24T06:23:52;46.40;;;8.75;;
56331;SDS011;42237;53.340;6.812;2022-12-24T06:26:19;53.88;;;8.52;;
56331;SDS011;42237;53.340;6.812;2022-12-24T06:28:46;47.75;;;8.27;;
56331;SDS011;42237;53.340;6.812;2022-12-24T06:31:19;53.70;;;9.05;;
56331;SDS011;42237;53.340;6.812;2022-12-24T06:33:51;53.15;;;8.82;;
56331;SDS011;42237;53.340;6.812;2022-12-24T06:36:21;47.53;;;9.30;;
56331;SDS011;42237;53.340;6.812;2022-12-24T06:38:48;41.70;;;9.65;;
56331;SDS011;42237;53.340;6.812;2022-12-24T06:41:18;51.53;;;8.70;;
56331;SDS011;42237;53.340;6.812;2022-12-24T06:43:44;50.00;;;8.60;;
56331;SDS011;42237;53.340;6.812;2022-12-24T06:46:19;54.65;;;8.43;;
56331;SDS011;42237;53.340;6.812;2022-12-24T06:48:47;56.65;;;9.35;;
56331;SDS011;42237;53.340;6.812;2022-12-24T06:51:19;45.17;;;8.18;;
56331;SDS011;42237;53.340;6.812;2022-12-24T06:53:46;54.60;;;10.32;;
56331;SDS011;42237;53.340;6.812;2022-12-24T06:56:22;46.05;;;9.60;;
56331;SDS011;42237;53.340;6.812;2022-12-24T06:58:51;46.92;;;8.00;;
56331;SDS011;42237;53.340;6.812;2022-12-24T07:01:22;41.63;;;7.88;;
56331;SDS011;42237;53.340;6.812;2022-12-24T07:03:51;52.60;;;9.95;;
56331;SDS011;42237;53.340;6.812;2022-12-24T07:06:18;44.28;;;8.60;;
56331;SDS011;42237;53.340;6.812;2022-12-24T07:08:48;52.53;;;8.60;;
56331;SDS011;42237;53.340;6.812;2022-12-24T07:11:13;43.25;;;9.00;;
56331;SDS011;42237;53.340;6.812;2022-12-24T07:13:42;61.25;;;8.98;;
56331;SDS011;42237;53.340;6.812;2022-12-24T07:16:10;45.22;;;8.50;;
56331;SDS011;42237;53.340;6.812;2022-12-24T07:18:36;66.00;;;9.65;;
56331;SDS011;42237;53.340;6.812;2022-12-24T07:21:04;44.92;;;8.93;;
56331;SDS011;42237;53.340;6.812;2022-12-24T07:23:33;48.42;;;9.38;;
56331;SDS011;42237;53.340;6.812;2022-12-24T07:26:02;54.20;;;9.50;;
56331;SDS011;42237;53.340;6.812;2022-12-24T07:28:29;45.28;;;8.43;;
56331;SDS011;42237;53.340;6.812;2022-12-24T07:30:55;50.08;;;9.18;;
56331;SDS011;42237;53.340;6.812;2022-12-24T07:33:24;38.58;;;8.45;;
56331;SDS011;42237;53.340;6.812;2022-12-24T07:35:57;41.63;;;9.10;;
56331;SDS011;42237;53.340;6.812;2022-12-24T07:38:27;56.90;;;8.70;;
56331;SDS011;42237;53.340;6.812;2022-12-24T07:40:54;54.33;;;9.77;;
56331;SDS011;42237;53.340;6.812;2022-12-24T07:43:24;43.65;;;8.32;;
56331;SDS011;42237;53.340;6.812;2022-12-24T07:45:53;47.40;;;9.40;;
56331;SDS011;42237;53.340;6.812;2022-12-24T07:48:20;47.90;;;8.30;;
56331;SDS011;42237;53.340;6.812;2022-12-24T07:50:48;44.95;;;8.45;;
56331;SDS011;42237;53.340;6.812;2022-12-24T07:53:32;51.78;;;9.07;;
56331;SDS011;42237;53.340;6.812;2022-12-24T07:56:03;43.47;;;8.40;;
56331;SDS011;42237;53.340;6.812;2022-12-24T07:58:31;45.17;;;8.00;;
56331;SDS011;42237;53.340;6.812;2022-12-24T08:00:58;49.90;;;9.35;;
56331;SDS011;42237;53.340;6.812;2022-12-24T08:03:24;44.83;;;7.93;;
56331;SDS011;42237;53.340;6.812;2022-12-24T08:05:51;46.90;;;9.40;;
56331;SDS011;42237;53.340;6.812;2022-12-24T08:08:19;40.33;;;8.77;;
56331;SDS011;42237;53.340;6.812;2022-12-24T08:10:45;38.33;;;7.82;;
56331;SDS011;42237;53.340;6.812;2022-12-24T08:13:12;42.45;;;8.50;;
56331;SDS011;42237;53.340;6.812;2022-12-24T08:15:38;42.90;;;8.52;;
56331;SDS011;42237;53.340;6.812;2022-12-24T08:18:04;48.10;;;8.82;;
56331;SDS011;42237;53.340;6.812;2022-12-24T08:20:29;51.10;;;9.10;;
56331;SDS011;42237;53.340;6.812;2022-12-24T08:23:04;45.90;;;8.07;;
56331;SDS011;42237;53.340;6.812;2022-12-24T08:25:33;44.58;;;8.27;;
56331;SDS011;42237;53.340;6.812;2022-12-24T08:27:59;41.53;;;8.85;;
56331;SDS011;42237;53.340;6.812;2022-12-24T08:30:27;43.22;;;8.73;;
56331;SDS011;42237;53.340;6.812;2022-12-24T08:32:53;47.83;;;8.88;;
56331;SDS011;42237;53.340;6.812;2022-12-24T08:35:21;41.35;;;8.30;;
56331;SDS011;42237;53.340;6.812;2022-12-24T08:37:50;48.45;;;9.23;;
56331;SDS011;42237;53.340;6.812;2022-12-24T08:40:16;50.95;;;8.52;;
56331;SDS011;42237;53.340;6.812;2022-12-24T08:42:44;41.70;;;8.40;;
56331;SDS011;42237;53.340;6.812;2022-12-24T08:45:10;36.85;;;7.90;;
56331;SDS011;42237;53.340;6.812;2022-12-24T08:47:36;47.20;;;8.20;;
56331;SDS011;42237;53.340;6.812;2022-12-24T08:50:06;45.53;;;9.23;;
56331;SDS011;42237;53.340;6.812;2022-12-24T08:52:34;34.95;;;6.70;;
56331;SDS011;42237;53.340;6.812;2022-12-24T08:55:00;49.17;;;8.68;;
56331;SDS011;42237;53.340;6.812;2022-12-24T08:57:26;44.42;;;7.60;;
56331;SDS011;42237;53.340;6.812;2022-12-24T08:59:52;42.67;;;8.40;;
56331;SDS011;42237;53.340;6.812;2022-12-24T09:02:21;45.95;;;9.35;;
56331;SDS011;42237;53.340;6.812;2022-12-24T09:04:47;46.38;;;9.95;;
56331;SDS011;42237;53.340;6.812;2022-12-24T09:07:13;44.60;;;9.73;;
56331;SDS011;42237;53.340;6.812;2022-12-24T09:09:39;51.10;;;8.98;;
56331;SDS011;42237;53.340;6.812;2022-12-24T09:12:05;48.55;;;9.88;;
56331;SDS011;42237;53.340;6.812;2022-12-24T09:14:32;42.10;;;8.60;;
56331;SDS011;42237;53.340;6.812;2022-12-24T09:17:02;49.25;;;9.50;;
56331;SDS011;42237;53.340;6.812;2022-12-24T09:19:30;38.75;;;9.60;;
56331;SDS011;42237;53.340;6.812;2022-12-24T09:22:01;53.10;;;10.98;;
56331;SDS011;42237;53.340;6.812;2022-12-24T09:24:30;44.55;;;10.48;;
56331;SDS011;42237;53.340;6.812;2022-12-24T09:26:56;43.47;;;8.30;;
56331;SDS011;42237;53.340;6.812;2022-12-24T09:29:29;62.00;;;11.02;;
56331;SDS011;42237;53.340;6.812;2022-12-24T09:31:58;49.10;;;10.15;;
56331;SDS011;42237;53.340;6.812;2022-12-24T09:34:24;39.92;;;10.95;;
56331;SDS011;42237;53.340;6.812;2022-12-24T09:36:50;52.28;;;10.23;;
56331;SDS011;42237;53.340;6.812;2022-12-24T09:39:18;47.47;;;9.50;;
56331;SDS011;42237;53.340;6.812;2022-12-24T09:42:05;42.45;;;9.95;;
56331;SDS011;42237;53.340;6.812;2022-12-24T09:45:03;44.05;;;10.20;;
56331;SDS011;42237;53.340;6.812;2022-12-24T09:52:45;51.55;;;10.35;;
56331;SDS011;42237;53.340;6.812;2022-12-24T09:55:23;42.95;;;8.52;;
56331;SDS011;42237;53.340;6.812;2022-12-24T09:57:54;47.80;;;9.90;;
56331;SDS011;42237;53.340;6.812;2022-12-24T10:00:28;48.25;;;10.20;;
56331;SDS011;42237;53.340;6.812;2022-12-24T10:02:56;49.80;;;9.10;;
56331;SDS011;42237;53.340;6.812;2022-12-24T10:05:25;43.83;;;8.70;;
56331;SDS011;42237;53.340;6.812;2022-12-24T10:08:13;47.40;;;9.63;;
56331;SDS011;42237;53.340;6.812;2022-12-24T10:10:52;45.77;;;9.70;;
56331;SDS011;42237;53.340;6.812;2022-12-24T10:13:27;47.83;;;8.82;;
56331;SDS011;42237;53.340;6.812;2022-12-24T10:21:54;46.72;;;9.70;;
56331;SDS011;42237;53.340;6.812;2022-12-24T10:26:50;42.22;;;8.60;;
56331;SDS011;42237;53.340;6.812;2022-12-24T10:29:26;45.83;;;10.18;;
56331;SDS011;42237;53.340;6.812;2022-12-24T10:31:56;38.05;;;9.10;;
56331;SDS011;42237;53.340;6.812;2022-12-24T10:34:36;39.25;;;8.73;;
56331;SDS011;42237;53.340;6.812;2022-12-24T10:39:52;34.90;;;8.93;;
56331;SDS011;42237;53.340;6.812;2022-12-24T10:42:19;44.38;;;9.40;;
56331;SDS011;42237;53.340;6.812;2022-12-24T10:44:54;40.55;;;8.82;;
56331;SDS011;42237;53.340;6.812;2022-12-24T10:47:25;41.15;;;9.15;;
56331;SDS011;42237;53.340;6.812;2022-12-24T10:49:53;45.92;;;9.55;;
56331;SDS011;42237;53.340;6.812;2022-12-24T10:52:27;40.25;;;9.25;;
56331;SDS011;42237;53.340;6.812;2022-12-24T10:55:04;32.78;;;9.00;;
56331;SDS011;42237;53.340;6.812;2022-12-24T10:57:33;37.65;;;8.68;;
56331;SDS011;42237;53.340;6.812;2022-12-24T10:59:59;48.72;;;9.77;;
56331;SDS011;42237;53.340;6.812;2022-12-24T11:02:38;42.40;;;10.43;;
56331;SDS011;42237;53.340;6.812;2022-12-24T11:05:05;42.58;;;9.20;;
56331;SDS011;42237;53.340;6.812;2022-12-24T11:08:10;37.47;;;8.63;;
56331;SDS011;42237;53.340;6.812;2022-12-24T11:10:43;41.08;;;9.25;;
56331;SDS011;42237;53.340;6.812;2022-12-24T11:14:00;33.00;;;8.95;;
56331;SDS011;42237;53.340;6.812;2022-12-24T11:16:29;39.33;;;9.25;;
56331;SDS011;42237;53.340;6.812;2022-12-24T11:18:58;34.08;;;8.55;;
56331;SDS011;42237;53.340;6.812;2022-12-24T11:21:30;50.35;;;9.27;;
56331;SDS011;42237;53.340;6.812;2022-12-24T11:26:36;41.25;;;10.13;;
56331;SDS011;42237;53.340;6.812;2022-12-24T11:29:10;40.05;;;8.88;;
56331;SDS011;42237;53.340;6.812;2022-12-24T11:31:37;35.70;;;8.90;;
56331;SDS011;42237;53.340;6.812;2022-12-24T11:34:22;40.72;;;9.45;;
56331;SDS011;42237;53.340;6.812;2022-12-24T11:37:06;45.10;;;9.25;;
56331;SDS011;42237;53.340;6.812;2022-12-24T11:39:40;41.05;;;8.98;;
56331;SDS011;42237;53.340;6.812;2022-12-24T11:42:22;40.30;;;9.75;;
56331;SDS011;42237;53.340;6.812;2022-12-24T11:44:57;39.50;;;9.13;;
56331;SDS011;42237;53.340;6.812;2022-12-24T11:47:59;44.78;;;8.95;;
56331;SDS011;42237;53.340;6.812;2022-12-24T11:50:19;46.80;;;8.82;;
56331;SDS011;42237;53.340;6.812;2022-12-24T12:06:45;39.83;;;9.05;;
56331;SDS011;42237;53.340;6.812;2022-12-24T12:09:13;32.85;;;8.48;;
56331;SDS011;42237;53.340;6.812;2022-12-24T12:12:03;23.20;;;6.47;;
56331;SDS011;42237;53.340;6.812;2022-12-24T12:14:34;37.33;;;7.63;;
56331;SDS011;42237;53.340;6.812;2022-12-24T12:17:33;36.17;;;7.55;;
56331;SDS011;42237;53.340;6.812;2022-12-24T12:20:24;29.90;;;6.80;;
56331;SDS011;42237;53.340;6.812;2022-12-24T12:33:59;29.38;;;6.80;;
56331;SDS011;42237;53.340;6.812;2022-12-24T12:39:12;38.05;;;6.65;;
56331;SDS011;42237;53.340;6.812;2022-12-24T12:47:41;20.92;;;5.05;;
56331;SDS011;42237;53.340;6.812;2022-12-24T12:55:41;18.92;;;5.80;;
56331;SDS011;42237;53.340;6.812;2022-12-24T12:58:52;25.27;;;5.93;;
56331;SDS011;42237;53.340;6.812;2022-12-24T13:01:41;22.92;;;4.82;;
56331;SDS011;42237;53.340;6.812;2022-12-24T13:07:10;18.38;;;4.70;;
56331;SDS011;42237;53.340;6.812;2022-12-24T13:20:51;32.13;;;4.82;;
56331;SDS011;42237;53.340;6.812;2022-12-24T13:23:18;20.10;;;4.82;;
56331;SDS011;42237;53.340;6.812;2022-12-24T13:25:47;18.48;;;4.57;;
56331;SDS011;42237;53.340;6.812;2022-12-24T13:31:32;26.83;;;5.45;;
56331;SDS011;42237;53.340;6.812;2022-12-24T13:36:13;32.03;;;5.40;;
56331;SDS011;42237;53.340;6.812;2022-12-24T13:49:18;27.25;;;5.47;;
56331;SDS011;42237;53.340;6.812;2022-12-24T13:51:49;25.35;;;6.22;;
56331;SDS011;42237;53.340;6.812;2022-12-24T13:54:16;34.80;;;5.18;;
56331;SDS011;42237;53.340;6.812;2022-12-24T13:56:47;28.00;;;4.53;;
56331;SDS011;42237;53.340;6.812;2022-12-24T13:59:22;25.98;;;4.40;;
56331;SDS011;42237;53.340;6.812;2022-12-24T14:01:52;25.63;;;4.55;;
56331;SDS011;42237;53.340;6.812;2022-12-24T14:04:23;22.70;;;5.35;;
56331;SDS011;42237;53.340;6.812;2022-12-24T14:06:58;27.92;;;4.82;;
56331;SDS011;42237;53.340;6.812;2022-12-24T14:09:26;27.63;;;5.47;;
56331;SDS011;42237;53.340;6.812;2022-12-24T14:19:40;19.40;;;4.93;;
56331;SDS011;42237;53.340;6.812;2022-12-24T14:24:42;22.38;;;5.60;;
56331;SDS011;42237;53.340;6.812;2022-12-24T14:27:19;23.40;;;4.72;;
56331;SDS011;42237;53.340;6.812;2022-12-24T14:29:55;24.73;;;4.72;;
56331;SDS011;42237;53.340;6.812;2022-12-24T14:32:33;21.42;;;5.10;;
56331;SDS011;42237;53.340;6.812;2022-12-24T14:35:05;25.45;;;4.72;;
56331;SDS011;42237;53.340;6.812;2022-12-24T14:37:31;20.50;;;5.55;;
56331;SDS011;42237;53.340;6.812;2022-12-24T14:39:57;21.30;;;5.15;;
56331;SDS011;42237;53.340;6.812;2022-12-24T14:50:39;18.60;;;4.78;;
56331;SDS011;42237;53.340;6.812;2022-12-24T14:56:21;17.55;;;5.15;;
56331;SDS011;42237;53.340;6.812;2022-12-24T14:58:47;18.52;;;5.05;;
56331;SDS011;42237;53.340;6.812;2022-12-24T15:06:42;18.08;;;5.25;;
56331;SDS011;42237;53.340;6.812;2022-12-24T15:09:24;19.45;;;5.03;;
56331;SDS011;42237;53.340;6.812;2022-12-24T15:11:54;19.90;;;5.35;;
56331;SDS011;42237;53.340;6.812;2022-12-24T15:14:23;21.92;;;4.65;;
56331;SDS011;42237;53.340;6.812;2022-12-24T15:16:59;19.23;;;5.00;;
56331;SDS011;42237;53.340;6.812;2022-12-24T15:19:32;21.40;;;5.22;;
56331;SDS011;42237;53.340;6.812;2022-12-24T15:22:02;26.95;;;5.03;;
56331;SDS011;42237;53.340;6.812;2022-12-24T15:24:32;23.95;;;5.20;;
56331;SDS011;42237;53.340;6.812;2022-12-24T15:27:01;24.70;;;5.00;;
56331;SDS011;42237;53.340;6.812;2022-12-24T15:29:38;26.15;;;5.78;;
56331;SDS011;42237;53.340;6.812;2022-12-24T15:32:11;17.08;;;4.90;;
56331;SDS011;42237;53.340;6.812;2022-12-24T15:34:43;24.60;;;5.13;;
56331;SDS011;42237;53.340;6.812;2022-12-24T15:37:15;26.60;;;5.47;;
56331;SDS011;42237;53.340;6.812;2022-12-24T15:39:42;27.63;;;5.22;;
56331;SDS011;42237;53.340;6.812;2022-12-24T15:42:09;31.20;;;6.78;;
56331;SDS011;42237;53.340;6.812;2022-12-24T15:44:59;20.67;;;4.47;;
56331;SDS011;42237;53.340;6.812;2022-12-24T15:47:46;22.02;;;5.03;;
56331;SDS011;42237;53.340;6.812;2022-12-24T15:50:16;25.38;;;5.57;;
56331;SDS011;42237;53.340;6.812;2022-12-24T15:53:52;28.48;;;6.20;;
56331;SDS011;42237;53.340;6.812;2022-12-24T15:58:35;17.43;;;5.07;;
56331;SDS011;42237;53.340;6.812;2022-12-24T16:03:53;20.65;;;5.25;;
56331;SDS011;42237;53.340;6.812;2022-12-24T16:06:21;17.65;;;5.10;;
56331;SDS011;42237;53.340;6.812;2022-12-24T16:08:47;20.42;;;4.68;;
56331;SDS011;42237;53.340;6.812;2022-12-24T16:11:22;23.23;;;4.82;;
56331;SDS011;42237;53.340;6.812;2022-12-24T16:16:15;17.90;;;5.15;;
56331;SDS011;42237;53.340;6.812;2022-12-24T16:18:56;23.50;;;5.20;;
56331;SDS011;42237;53.340;6.812;2022-12-24T16:21:31;18.23;;;4.97;;
56331;SDS011;42237;53.340;6.812;2022-12-24T16:24:23;20.38;;;4.68;;
56331;SDS011;42237;53.340;6.812;2022-12-24T16:26:52;22.17;;;6.43;;
56331;SDS011;42237;53.340;6.812;2022-12-24T16:29:18;23.02;;;5.00;;
56331;SDS011;42237;53.340;6.812;2022-12-24T16:31:45;15.50;;;4.70;;
56331;SDS011;42237;53.340;6.812;2022-12-24T16:34:15;17.50;;;5.07;;
56331;SDS011;42237;53.340;6.812;2022-12-24T16:36:42;21.90;;;5.22;;
56331;SDS011;42237;53.340;6.812;2022-12-24T16:39:17;26.90;;;5.10;;
56331;SDS011;42237;53.340;6.812;2022-12-24T16:41:54;23.02;;;4.65;;
56331;SDS011;42237;53.340;6.812;2022-12-24T16:44:42;28.33;;;5.45;;
56331;SDS011;42237;53.340;6.812;2022-12-24T16:47:14;20.48;;;6.13;;
56331;SDS011;42237;53.340;6.812;2022-12-24T16:49:51;25.33;;;4.80;;
56331;SDS011;42237;53.340;6.812;2022-12-24T16:52:21;29.65;;;5.15;;
56331;SDS011;42237;53.340;6.812;2022-12-24T16:54:50;22.45;;;6.43;;
56331;SDS011;42237;53.340;6.812;2022-12-24T16:57:16;22.10;;;5.80;;
56331;SDS011;42237;53.340;6.812;2022-12-24T16:59:42;25.15;;;5.97;;
56331;SDS011;42237;53.340;6.812;2022-12-24T17:02:09;29.17;;;6.32;;
56331;SDS011;42237;53.340;6.812;2022-12-24T17:04:37;33.63;;;6.88;;
56331;SDS011;42237;53.340;6.812;2022-12-24T17:07:03;23.50;;;5.97;;
56331;SDS011;42237;53.340;6.812;2022-12-24T17:09:30;18.35;;;5.03;;
56331;SDS011;42237;53.340;6.812;2022-12-24T17:11:55;21.00;;;6.07;;
56331;SDS011;42237;53.340;6.812;2022-12-24T17:14:21;23.83;;;4.88;;